FW3613 Weather Reports


Display with metric or nautical units.
time (UTC)temp
F
wind
direction
speed
MPH
gust
MPH
rain 1hr
in
rain 24hr
in
rain mn
in
humidity
%
barometer
mb
20220518123101 44 138 0.0 0.0 0.00 0.00 0.00 82 1019.8
20220518121559 44 138 0.0 0.0 0.00 0.00 0.00 81 1019.9
20220518120100 44 138 0.0 1.0 0.00 0.00 0.00 80 1020.0
20220518114559 44 138 0.0 0.0 0.00 0.00 0.00 79 1019.9
20220518113059 45 138 0.0 0.0 0.00 0.00 0.00 78 1019.8
20220518111557 45 139 0.0 1.0 0.00 0.00 0.00 78 1019.7
20220518110050 46 138 0.0 0.0 0.00 0.00 0.00 78 1019.6
20220518104556 46 138 0.0 0.0 0.00 0.00 0.00 77 1019.6
20220518103104 46 138 0.0 0.0 0.00 0.00 0.00 76 1019.6
20220518101552 47 138 0.0 1.0 0.00 0.00 0.00 74 1019.6
20220518100044 49 141 0.0 2.0 0.00 0.00 0.00 66 1019.5
20220518094542 49 123 0.0 1.0 0.00 0.00 0.00 63 1019.5
20220518093039 51 15 0.0 1.0 0.00 0.00 0.00 60 1019.4
20220518091538 50 39 0.0 1.0 0.00 0.00 0.00 59 1019.3
20220518090036 50 108 0.0 1.0 0.00 0.00 0.00 61 1019.2
20220518084537 50 131 0.0 1.0 0.00 0.00 0.00 62 1019.3
20220518083033 49 131 0.0 0.0 0.00 0.00 0.00 69 1019.4
20220518081533 49 131 0.0 1.0 0.00 0.00 0.00 69 1019.3
20220518080029 50 131 0.0 1.0 0.00 0.00 0.00 69 1019.3
20220518074527 50 131 0.0 1.0 0.00 0.00 0.00 68 1019.4
20220518073030 51 131 0.0 1.0 0.00 0.00 0.00 68 1019.4
20220518071527 51 131 0.0 1.0 0.00 0.00 0.00 67 1019.6
20220518070020 51 131 0.0 0.0 0.00 0.00 0.00 67 1019.5
20220518064529 52 131 0.0 1.0 0.00 0.00 0.00 65 1019.4
20220518063015 53 131 0.0 1.0 0.00 0.00 0.00 62 1019.3
20220518061512 53 131 0.0 1.0 0.00 0.00 0.00 62 1019.2
20220518060008 54 131 0.0 1.0 0.00 0.00 0.00 61 1019.1
20220518054519 55 131 0.0 0.0 0.00 0.00 0.00 61 1019.1
20220518053007 56 131 0.0 0.0 0.00 0.00 0.00 60 1019.0
20220518051509 57 131 0.0 1.0 0.00 0.00 0.00 57 1018.9
20220518050008 58 131 0.0 1.0 0.00 0.00 0.00 52 1018.8
20220518044505 58 131 0.0 1.0 0.00 0.00 0.00 53 1018.8
20220518043006 60 127 0.0 1.0 0.00 0.00 0.00 47 1018.7
20220518041505 60 131 0.0 1.0 0.00 0.00 0.00 48 1018.4
20220518040004 61 131 0.0 2.0 0.00 0.00 0.00 46 1018.3
20220518034504 62 130 0.0 1.0 0.00 0.00 0.00 45 1018.1
20220518033014 63 124 0.0 1.0 0.00 0.00 0.00 44 1017.8
20220518031507 63 122 0.0 1.0 0.00 0.00 0.00 44 1017.7
20220518030002 65 122 0.0 1.0 0.00 0.00 0.00 40 1017.7
20220518024502 68 123 0.0 1.0 0.00 0.00 0.00 36 1017.5
20220518023100 69 294 0.0 2.0 0.00 0.00 0.00 31 1017.5
20220518021600 70 293 0.0 1.0 0.00 0.00 0.00 27 1017.4
20220518020104 72 294 0.0 4.0 0.00 0.00 0.00 25 1017.3
20220518014600 72 298 4.0 7.0 0.00 0.00 0.00 24 1017.2
20220518013105 73 301 4.0 7.0 0.00 0.00 0.00 24 1017.2
20220518011558 73 301 3.0 7.0 0.00 0.00 0.00 22 1017.3
20220518010100 73 294 3.0 7.0 0.00 0.00 0.00 20 1017.4
20220518004557 73 297 2.0 6.0 0.00 0.00 0.00 21 1017.5
20220518003104 74 285 3.0 9.0 0.00 0.00 0.00 22 1017.5
20220518001603 74 307 5.0 10.0 0.00 0.00 0.00 23 1017.6
20220518000054 74 309 4.0 10.0 0.00 0.00 0.00 24 1017.7
20220517234607 74 299 4.0 9.0 0.00 0.00 0.00 23 1017.8
20220517233052 74 306 4.0 9.0 0.00 0.00 0.00 25 1017.8
20220517231551 74 304 6.0 11.0 0.00 0.00 0.00 25 1018.0
20220517230052 74 295 5.0 11.0 0.00 0.00 0.00 27 1018.1
20220517224548 74 305 2.0 11.0 0.00 0.00 0.00 29 1018.1
20220517223049 73 304 5.0 12.0 0.00 0.00 0.00 29 1018.3
20220517221558 73 315 6.0 10.0 0.00 0.00 0.00 28 1018.4
20220517220045 73 313 5.0 13.0 0.00 0.00 0.00 29 1018.5
20220517214611 73 309 6.0 10.0 0.00 0.00 0.00 31 1018.6
20220517213043 72 304 2.0 13.0 0.00 0.00 0.00 30 1018.6
20220517211542 72 305 3.0 11.0 0.00 0.00 0.00 32 1018.7
20220517210142 73 305 3.0 8.0 0.00 0.00 0.00 31 1018.7
20220517204538 71 291 4.0 12.0 0.00 0.00 0.00 31 1018.7
20220517203039 70 313 4.0 10.0 0.00 0.00 0.00 33 1018.7
20220517201537 70 261 2.0 10.0 0.00 0.00 0.00 35 1018.8
20220517200035 69 316 5.0 11.0 0.00 0.00 0.00 39 1018.9
20220517194532 68 323 5.0 11.0 0.00 0.00 0.00 41 1019.1
20220517193025 67 307 3.0 13.0 0.00 0.00 0.00 41 1019.2
20220517191537 67 306 6.0 13.0 0.00 0.00 0.00 41 1019.4
20220517190035 66 274 4.0 12.0 0.00 0.00 0.00 42 1019.4
20220517184519 65 297 4.0 12.0 0.00 0.00 0.00 41 1019.5
20220517183016 64 319 3.0 9.0 0.00 0.00 0.00 45 1019.5
20220517181520 63 301 2.0 10.0 0.00 0.00 0.00 48 1019.6
20220517180021 62 285 3.0 11.0 0.00 0.00 0.00 51 1019.6
20220517174510 61 302 4.0 8.0 0.00 0.00 0.00 52 1019.7
20220517173004 60 321 4.0 8.0 0.00 0.00 0.00 54 1019.8
20220517171501 59 285 3.0 7.0 0.00 0.00 0.00 56 1019.8
20220517170105 59 310 5.0 8.0 0.00 0.00 0.00 58 1019.9